メインページ
METAR-TAF:

METAR-TAF

空港 :

Edson, アルバータ州, カナダ

緯度: 53-35N, 経度: 116-28W, 海抜: 921m

現時点の気象観測

当レポートは38分前の09:00(UTC)に作成
変向風 2kt
気温 -3°C
湿度 93%
気圧 1016 hPa
視程: 14.5km
高度13000ftの雲はほとんどない

METAR: CYET 140900Z AUTO VRB02KT 9SM FEW130 M03/M04 A3001 RMK SLP195

時間: 02:38 (09:38 UTC)


TAF: 見つかりません

4,000以上の空港の気象観測と天気予報(METAR報とTAF報)

利用可能な観測所は地図上に黄色い丸と赤い丸で示す。

丸の上にカーソルを重ねると観測所名を参照できる。

次にクリックすると気象観測と天気予報を参照できる。

マップの切り替え:黒色「×」印の緑ボタンをクリックして拡大、「-」印の緑ボタンをクリックして縮小、緑色の三角印をクリックして隣りの地図に切り替え


METAR-TAF: